Time;durP1;ratioP1;P1;durP2;ratioP2;P2;SDS_P1;SDS_P2;PMS_P1;PMS_P2;Temp;Humidity;BMP_temperature;BMP_pressure;BME280_temperature;BME280_humidity;BME280_pressure;Samples;Min_cycle;Max_cycle;Signal;HPM_P1;HPM_P2
2021/12/10 00:02:05;;;;;;;2.92;1.73;;;7.70;99.90;;;;;;5030145;28;20439;-76
2021/12/10 00:04:35;;;;;;;2.67;1.23;;;8.50;99.90;;;;;;5030130;28;20783;-76
2021/12/10 00:07:23;;;;;;;1.92;1.08;;;8.90;99.90;;;;;;5012123;28;20518;-76
2021/12/10 00:09:54;;;;;;;1.15;0.70;;;9.20;99.90;;;;;;5012621;28;20530;-76
2021/12/10 00:12:25;;;;;;;1.13;0.68;;;9.50;99.90;;;;;;5030313;28;20029;-76
2021/12/10 00:14:52;;;;;;;2.60;0.73;;;9.70;99.90;;;;;;5030234;28;20029;-76
2021/12/10 00:17:20;;;;;;;0.52;0.40;;;9.80;99.90;;;;;;5010602;28;20069;-76
2021/12/10 00:19:50;;;;;;;1.27;0.50;;;10.00;99.90;;;;;;5027979;28;20025;-76
2021/12/10 00:22:33;;;;;;;0.43;0.40;;;10.00;99.90;;;;;;5008727;28;20112;-76
2021/12/10 00:24:59;;;;;;;0.50;0.50;;;10.00;99.90;;;;;;5021718;28;20044;-77
2021/12/10 00:27:30;;;;;;;0.68;0.40;;;10.10;99.90;;;;;;5012148;28;20030;-77
2021/12/10 00:30:06;;;;;;;1.23;0.47;;;10.30;99.90;;;;;;5012253;28;20037;-76
2021/12/10 00:32:38;;;;;;;0.60;0.40;;;10.30;99.90;;;;;;5031960;28;20033;-76
2021/12/10 00:35:09;;;;;;;0.40;0.40;;;10.30;99.90;;;;;;5030151;28;20022;-76
2021/12/10 00:37:36;;;;;;;0.60;0.60;;;10.40;99.90;;;;;;5011400;28;20029;-76
2021/12/10 00:40:07;;;;;;;0.50;0.30;;;10.40;99.90;;;;;;5029347;28;20181;-76
2021/12/10 00:42:35;;;;;;;0.22;0.22;;;10.50;99.90;;;;;;5029652;28;20015;-76
2021/12/10 00:45:02;;;;;;;1.55;0.35;;;10.50;99.90;;;;;;5011764;28;20038;-76
2021/12/10 00:47:28;;;;;;;0.28;0.28;;;10.60;99.90;;;;;;5013514;28;20115;-76
2021/12/10 00:49:54;;;;;;;0.85;0.28;;;10.60;99.90;;;;;;5029105;28;20037;-76
2021/12/10 00:52:21;;;;;;;0.82;0.40;;;10.60;99.90;;;;;;5007863;28;20299;-76
2021/12/10 00:54:47;;;;;;;0.32;0.30;;;10.70;99.90;;;;;;5018167;28;20033;-76
2021/12/10 00:57:14;;;;;;;0.98;0.43;;;10.70;99.90;;;;;;5029384;28;20025;-76
2021/12/10 00:59:42;;;;;;;0.30;0.30;;;10.70;99.90;;;;;;5028564;28;20026;-76
2021/12/10 01:02:11;;;;;;;0.70;0.50;;;10.70;99.90;;;;;;5030661;28;20018;-76
2021/12/10 01:04:41;;;;;;;1.70;0.90;;;10.70;99.90;;;;;;5024897;28;20029;-76
2021/12/10 01:07:10;;;;;;;0.20;0.20;;;10.80;99.90;;;;;;5027974;28;20025;-76
2021/12/10 01:09:39;;;;;;;0.55;0.40;;;10.80;99.90;;;;;;5007427;28;20033;-76
2021/12/10 01:12:16;;;;;;;0.65;0.40;;;10.90;99.90;;;;;;5028779;28;20025;-76
2021/12/10 01:28:34;;;;;;;1.67;0.30;;;10.90;99.90;;;;;;5028047;28;20036;-76
2021/12/10 01:30:59;;;;;;;0.57;0.40;;;11.00;99.90;;;;;;5028086;28;20079;-77
2021/12/10 01:33:25;;;;;;;0.30;0.30;;;11.00;99.90;;;;;;5027957;28;20037;-76
2021/12/10 01:35:55;;;;;;;0.28;0.28;;;11.00;99.90;;;;;;5028158;28;20087;-77
2021/12/10 01:38:23;;;;;;;0.38;0.20;;;11.00;99.90;;;;;;5029792;28;20057;-77
2021/12/10 01:40:55;;;;;;;1.40;0.93;;;11.00;99.90;;;;;;5028664;28;20063;-77
2021/12/10 01:43:24;;;;;;;0.75;0.38;;;11.00;99.90;;;;;;5028339;28;20028;-77
2021/12/10 01:46:02;;;;;;;1.65;0.55;;;11.10;99.90;;;;;;5002656;28;20125;-77
2021/12/10 01:48:31;;;;;;;2.33;0.50;;;11.10;99.90;;;;;;5008951;28;20030;-77
2021/12/10 01:50:59;;;;;;;1.83;0.35;;;11.10;99.90;;;;;;5008643;28;20160;-77
2021/12/10 01:53:29;;;;;;;0.93;0.40;;;11.10;99.90;;;;;;5009962;28;20022;-77
2021/12/10 01:55:58;;;;;;;2.90;0.50;;;11.20;99.90;;;;;;5009047;28;20064;-77
2021/12/10 01:58:27;;;;;;;1.02;0.50;;;11.20;99.90;;;;;;5008706;28;20113;-77
2021/12/10 02:01:15;;;;;;;2.60;0.85;;;11.30;99.90;;;;;;5006783;28;20030;-76
2021/12/10 02:03:43;;;;;;;0.77;0.63;;;11.30;99.90;;;;;;5007162;28;20487;-77
2021/12/10 02:06:09;;;;;;;0.95;0.50;;;11.30;99.90;;;;;;5008617;28;20014;-77
2021/12/10 02:08:36;;;;;;;4.47;0.60;;;11.40;99.90;;;;;;5009401;28;20112;-77
2021/12/10 02:11:02;;;;;;;3.85;0.90;;;11.40;99.90;;;;;;5008691;28;20030;-77
2021/12/10 02:13:28;;;;;;;3.50;0.85;;;11.30;99.90;;;;;;5008038;28;20026;-77
2021/12/10 02:15:55;;;;;;;3.83;0.50;;;11.40;99.90;;;;;;5008102;28;20032;-77
2021/12/10 02:18:21;;;;;;;2.10;1.10;;;11.40;99.90;;;;;;5008286;28;20029;-77
2021/12/10 02:20:46;;;;;;;2.15;0.60;;;11.40;99.90;;;;;;5007163;28;20054;-77
2021/12/10 02:23:12;;;;;;;3.42;0.90;;;11.40;99.90;;;;;;5007294;28;20053;-77
2021/12/10 02:25:38;;;;;;;2.92;0.70;;;11.40;99.90;;;;;;5008131;28;20044;-77
2021/12/10 02:28:09;;;;;;;2.33;0.88;;;11.40;99.90;;;;;;5008337;28;20499;-77
2021/12/10 02:30:37;;;;;;;5.07;1.83;;;11.40;99.90;;;;;;5007833;28;20030;-77
2021/12/10 02:33:03;;;;;;;2.30;0.52;;;11.40;99.90;;;;;;5008518;28;20046;-77
2021/12/10 02:35:29;;;;;;;2.05;0.65;;;11.40;99.90;;;;;;5009247;28;20031;-77
2021/12/10 02:37:55;;;;;;;4.47;0.85;;;11.40;99.90;;;;;;5007563;28;20056;-77
2021/12/10 02:40:24;;;;;;;1.05;0.70;;;11.40;99.90;;;;;;5006528;28;20026;-77
2021/12/10 02:42:51;;;;;;;1.80;0.65;;;11.40;99.90;;;;;;5008057;28;20053;-77
2021/12/10 02:45:19;;;;;;;1.23;1.05;;;11.30;99.90;;;;;;5016078;28;20570;-77
2021/12/10 02:47:47;;;;;;;1.77;0.52;;;11.40;99.90;;;;;;5027946;28;20022;-77
2021/12/10 02:50:16;;;;;;;3.90;1.00;;;11.40;99.90;;;;;;5028701;28;20045;-77
2021/12/10 02:52:42;;;;;;;3.22;0.70;;;11.40;99.90;;;;;;5006433;28;20022;-77
2021/12/10 02:55:15;;;;;;;1.13;0.50;;;11.30;99.90;;;;;;5020852;28;20096;-77
2021/12/10 02:57:41;;;;;;;2.63;0.52;;;11.30;99.90;;;;;;5027172;28;20029;-77
2021/12/10 03:00:12;;;;;;;2.03;0.80;;;11.30;99.90;;;;;;5009346;28;20036;-77
2021/12/10 03:02:38;;;;;;;5.75;1.50;;;11.30;99.90;;;;;;5028265;28;20049;-77
2021/12/10 03:05:07;;;;;;;1.30;0.70;;;11.20;99.90;;;;;;5027867;28;20111;-77
2021/12/10 03:07:35;;;;;;;1.40;0.60;;;11.20;99.90;;;;;;5027237;28;20030;-77
2021/12/10 03:10:04;;;;;;;1.73;0.90;;;11.20;99.90;;;;;;5027407;28;20030;-77
2021/12/10 03:12:31;;;;;;;3.90;0.90;;;11.20;99.90;;;;;;5027603;28;20030;-77
2021/12/10 03:14:58;;;;;;;2.22;0.80;;;11.20;99.90;;;;;;5027528;28;20100;-77
2021/12/10 03:17:29;;;;;;;3.15;1.83;;;11.30;99.90;;;;;;5029235;28;20049;-77
2021/12/10 03:19:55;;;;;;;4.57;1.10;;;11.20;99.90;;;;;;5027239;28;20033;-77
2021/12/10 03:22:22;;;;;;;2.38;0.80;;;11.30;99.90;;;;;;5009352;28;20091;-77
2021/12/10 03:24:51;;;;;;;1.52;0.60;;;11.30;99.90;;;;;;5030994;28;20109;-77
2021/12/10 03:27:16;;;;;;;1.40;0.80;;;11.30;99.90;;;;;;5031115;28;20090;-77
2021/12/10 03:29:44;;;;;;;1.17;0.50;;;11.30;99.90;;;;;;5011212;28;20026;-77
2021/12/10 03:32:20;;;;;;;0.40;0.35;;;11.30;99.90;;;;;;5032246;28;20025;-77
2021/12/10 03:34:46;;;;;;;1.92;0.40;;;11.40;99.90;;;;;;5030828;28;20049;-77
2021/12/10 03:37:13;;;;;;;0.35;0.30;;;11.40;99.90;;;;;;5031046;28;20034;-77
2021/12/10 03:39:39;;;;;;;0.40;0.40;;;11.40;99.90;;;;;;5030768;28;20029;-77
2021/12/10 03:42:06;;;;;;;1.10;0.30;;;11.30;99.90;;;;;;5030854;28;20021;-77
2021/12/10 03:44:32;;;;;;;1.75;0.50;;;11.30;99.90;;;;;;5028301;28;20014;-77
2021/12/10 03:46:58;;;;;;;0.63;0.30;;;11.40;99.90;;;;;;5030648;28;20112;-77
2021/12/10 03:49:24;;;;;;;0.65;0.40;;;11.40;99.90;;;;;;5030280;28;20025;-77
2021/12/10 03:51:52;;;;;;;0.75;0.40;;;11.40;99.90;;;;;;5030461;28;20501;-77
2021/12/10 03:54:19;;;;;;;0.60;0.30;;;11.50;99.90;;;;;;5030880;28;20033;-77
2021/12/10 03:56:48;;;;;;;0.90;0.45;;;11.40;99.90;;;;;;5030670;28;20397;-77
2021/12/10 03:59:16;;;;;;;0.45;0.45;;;11.50;99.90;;;;;;5010622;28;20096;-77
2021/12/10 04:01:45;;;;;;;1.00;0.50;;;11.40;99.90;;;;;;5027999;28;20026;-77
2021/12/10 04:04:19;;;;;;;1.45;0.40;;;11.50;99.90;;;;;;5030094;28;20044;-77
2021/12/10 04:06:46;;;;;;;0.57;0.40;;;11.50;99.90;;;;;;5030039;28;20036;-77
2021/12/10 04:09:12;;;;;;;3.28;0.47;;;11.50;99.90;;;;;;5030689;28;20079;-77
2021/12/10 04:11:39;;;;;;;2.15;0.82;;;11.50;99.90;;;;;;5030710;28;20490;-77
2021/12/10 04:14:05;;;;;;;0.60;0.40;;;11.60;99.90;;;;;;5031425;28;20020;-77
2021/12/10 04:16:33;;;;;;;0.63;0.30;;;11.50;99.90;;;;;;5030224;28;20112;-78
2021/12/10 04:19:04;;;;;;;0.40;0.40;;;11.60;99.90;;;;;;5030157;28;20128;-77
2021/12/10 04:21:30;;;;;;;0.80;0.30;;;11.50;99.90;;;;;;5029912;28;20494;-77
2021/12/10 04:23:56;;;;;;;0.32;0.32;;;11.60;99.90;;;;;;5011830;28;20033;-77
2021/12/10 04:26:24;;;;;;;0.82;0.38;;;11.50;99.90;;;;;;5031398;28;20040;-77
2021/12/10 04:28:51;;;;;;;0.43;0.30;;;11.40;99.90;;;;;;5023712;28;20030;-77
2021/12/10 04:31:18;;;;;;;0.63;0.40;;;11.40;99.90;;;;;;5026159;28;20226;-77
2021/12/10 04:33:44;;;;;;;0.10;0.10;;;11.60;99.90;;;;;;5024240;28;20509;-77
2021/12/10 04:36:10;;;;;;;0.88;0.20;;;11.60;99.90;;;;;;5024518;28;20018;-77
2021/12/10 04:38:37;;;;;;;0.68;0.20;;;11.50;99.90;;;;;;5006953;28;20037;-77
2021/12/10 04:41:06;;;;;;;1.25;0.20;;;11.60;99.90;;;;;;5025965;28;20022;-77
2021/12/10 04:43:35;;;;;;;0.50;0.30;;;11.60;99.90;;;;;;5026041;28;20108;-76
2021/12/10 04:46:01;;;;;;;0.98;0.28;;;11.60;99.90;;;;;;5026969;28;20030;-77
2021/12/10 04:48:28;;;;;;;2.00;0.38;;;11.50;99.90;;;;;;5012084;28;20120;-75
2021/12/10 04:50:55;;;;;;;3.30;0.50;;;11.50;99.90;;;;;;5029469;28;20026;-75
2021/12/10 04:53:21;;;;;;;1.02;0.32;;;11.40;99.90;;;;;;5030860;28;20030;-75
2021/12/10 04:55:48;;;;;;;1.08;0.40;;;11.40;99.90;;;;;;5028825;28;20120;-75
2021/12/10 04:58:14;;;;;;;1.42;0.52;;;11.40;99.90;;;;;;5029315;28;20032;-75
2021/12/10 05:00:45;;;;;;;1.85;0.55;;;11.40;99.90;;;;;;5029762;28;20022;-75
2021/12/10 05:03:12;;;;;;;2.28;0.50;;;11.30;99.90;;;;;;5015049;28;20030;-76
2021/12/10 05:05:39;;;;;;;5.95;0.93;;;11.30;99.90;;;;;;5014261;28;20100;-76
2021/12/10 05:08:06;;;;;;;6.95;1.65;;;11.20;99.90;;;;;;5000784;28;20033;-76
2021/12/10 05:10:33;;;;;;;7.25;1.45;;;11.20;99.90;;;;;;5017336;28;20018;-76
2021/12/10 05:12:59;;;;;;;6.28;1.33;;;11.20;99.90;;;;;;5020106;28;20025;-76
2021/12/10 05:15:27;;;;;;;5.70;2.58;;;11.10;99.90;;;;;;5012547;28;20485;-76
2021/12/10 05:17:54;;;;;;;16.20;2.90;;;11.10;99.90;;;;;;5014121;28;20026;-76
2021/12/10 05:20:28;;;;;;;9.25;2.60;;;11.00;99.90;;;;;;5030864;28;20025;-76
2021/12/10 05:22:54;;;;;;;9.23;2.13;;;10.90;99.90;;;;;;5029325;28;20021;-76
2021/12/10 05:25:20;;;;;;;12.70;3.17;;;10.90;99.90;;;;;;5011357;28;20108;-76
2021/12/10 05:27:47;;;;;;;13.25;2.63;;;10.80;99.90;;;;;;5008010;28;20112;-76
2021/12/10 05:30:17;;;;;;;9.35;2.97;;;10.70;99.90;;;;;;5027315;28;20101;-75
2021/12/10 05:32:43;;;;;;;9.32;2.58;;;10.70;99.90;;;;;;5013519;28;20049;-76
2021/12/10 05:35:09;;;;;;;12.05;2.50;;;10.70;99.90;;;;;;5030648;28;20061;-76
2021/12/10 05:37:35;;;;;;;12.90;3.38;;;10.60;99.90;;;;;;5021919;28;20018;-76
2021/12/10 05:40:02;;;;;;;10.25;2.95;;;10.50;99.90;;;;;;5024320;28;20033;-76
2021/12/10 05:42:28;;;;;;;13.30;3.45;;;10.50;99.90;;;;;;5028907;28;20109;-76
2021/12/10 05:44:54;;;;;;;16.67;3.90;;;10.40;99.90;;;;;;5028963;28;20132;-76
2021/12/10 05:47:19;;;;;;;20.52;3.28;;;10.50;99.90;;;;;;5029686;28;20056;-76
2021/12/10 05:49:45;;;;;;;15.77;3.53;;;10.50;99.90;;;;;;5028784;28;20049;-76
2021/12/10 05:52:11;;;;;;;24.48;4.95;;;10.50;99.90;;;;;;5010523;28;20561;-76
2021/12/10 05:54:38;;;;;;;14.40;3.35;;;10.30;99.90;;;;;;5028372;28;20020;-75
2021/12/10 05:57:04;;;;;;;13.15;3.72;;;10.30;99.90;;;;;;5029505;28;20033;-76
2021/12/10 05:59:32;;;;;;;23.20;3.80;;;10.30;99.90;;;;;;5009131;28;20544;-76
2021/12/10 06:01:58;;;;;;;17.33;3.70;;;10.20;99.90;;;;;;5017705;28;20072;-77
2021/12/10 06:04:27;;;;;;;15.73;3.88;;;10.10;99.90;;;;;;5023835;28;20025;-76
2021/12/10 06:06:54;;;;;;;21.98;4.43;;;10.10;99.90;;;;;;5027675;28;20025;-77
2021/12/10 06:09:21;;;;;;;14.15;3.25;;;10.10;99.90;;;;;;5011954;28;20087;-75
2021/12/10 06:11:47;;;;;;;15.68;3.45;;;10.10;99.90;;;;;;5011150;28;20025;-75
2021/12/10 06:14:12;;;;;;;21.15;5.88;;;10.00;99.90;;;;;;5029455;28;20080;-75
2021/12/10 06:16:38;;;;;;;30.17;5.05;;;10.00;99.90;;;;;;5028789;28;20029;-75
2021/12/10 06:19:05;;;;;;;26.98;5.10;;;9.90;99.90;;;;;;5028238;28;20021;-75
2021/12/10 06:21:33;;;;;;;21.70;4.53;;;9.90;99.90;;;;;;5027699;28;20048;-75
2021/12/10 06:24:00;;;;;;;20.77;4.50;;;9.90;99.90;;;;;;5010159;28;20029;-75
2021/12/10 06:26:26;;;;;;;26.30;5.72;;;9.80;99.90;;;;;;5029681;28;20025;-75
2021/12/10 06:28:52;;;;;;;20.95;4.50;;;9.80;99.90;;;;;;5006746;28;20510;-75
2021/12/10 06:31:20;;;;;;;21.73;5.55;;;9.70;99.90;;;;;;5004100;28;20032;-75
2021/12/10 06:33:46;;;;;;;23.05;4.57;;;9.80;99.90;;;;;;5010103;28;20033;-75
2021/12/10 06:36:14;;;;;;;23.30;5.05;;;9.70;99.90;;;;;;5027695;28;20032;-75
2021/12/10 06:38:40;;;;;;;29.30;5.53;;;9.80;99.90;;;;;;5027844;28;20033;-75
2021/12/10 06:41:06;;;;;;;25.80;5.50;;;9.70;99.90;;;;;;5028552;28;20025;-75
2021/12/10 06:43:32;;;;;;;27.05;5.60;;;9.70;99.90;;;;;;5027984;28;20036;-75
2021/12/10 06:46:00;;;;;;;26.75;6.03;;;9.70;99.90;;;;;;5009125;28;20530;-75
2021/12/10 06:48:28;;;;;;;23.63;5.68;;;9.70;99.90;;;;;;5018747;28;20022;-76
2021/12/10 06:50:56;;;;;;;37.05;4.93;;;9.60;99.90;;;;;;5027294;28;20029;-75
2021/12/10 06:53:25;;;;;;;21.88;4.28;;;9.60;99.90;;;;;;5029189;28;20041;-76
2021/12/10 06:55:51;;;;;;;28.58;6.00;;;9.60;99.90;;;;;;5026907;28;20045;-75
2021/12/10 06:58:18;;;;;;;24.98;4.97;;;9.60;99.90;;;;;;5030462;28;20036;-76
2021/12/10 07:00:51;;;;;;;23.70;4.47;;;9.60;99.90;;;;;;5031545;28;20071;-76
2021/12/10 07:03:20;;;;;;;17.80;3.45;;;9.60;99.90;;;;;;5014038;28;20033;-75
2021/12/10 07:05:47;;;;;;;21.73;4.20;;;9.60;99.90;;;;;;5013985;28;20086;-76
2021/12/10 07:08:14;;;;;;;26.77;5.60;;;9.60;99.90;;;;;;5032452;28;20029;-76
2021/12/10 07:10:40;;;;;;;20.42;3.80;;;9.50;99.90;;;;;;5031420;28;20017;-75
2021/12/10 07:13:06;;;;;;;24.55;5.03;;;9.50;99.90;;;;;;5031825;28;20060;-76
2021/12/10 07:15:37;;;;;;;36.22;6.32;;;9.40;99.90;;;;;;5031654;28;20105;-76
2021/12/10 07:18:03;;;;;;;31.60;5.20;;;9.40;99.90;;;;;;5031453;28;20037;-76
2021/12/10 07:20:29;;;;;;;26.23;4.85;;;9.40;99.90;;;;;;5014891;28;20033;-76
2021/12/10 07:22:55;;;;;;;30.38;6.38;;;9.40;99.90;;;;;;5009686;28;20530;-75
2021/12/10 07:25:21;;;;;;;26.40;6.13;;;9.40;99.90;;;;;;5023538;28;20045;-76
2021/12/10 07:27:48;;;;;;;23.55;4.82;;;9.40;99.90;;;;;;5028046;28;20357;-76
2021/12/10 07:30:16;;;;;;;25.15;4.97;;;9.50;99.90;;;;;;5029402;28;20049;-75
2021/12/10 07:32:42;;;;;;;25.60;4.93;;;9.50;99.90;;;;;;5010625;28;20070;-75
2021/12/10 07:35:09;;;;;;;26.27;4.55;;;9.50;99.90;;;;;;5031057;28;20069;-76
2021/12/10 07:37:36;;;;;;;27.27;5.13;;;9.50;99.90;;;;;;5009200;28;20483;-75
2021/12/10 07:40:05;;;;;;;26.95;4.70;;;9.50;99.90;;;;;;5021840;28;20029;-75
2021/12/10 07:42:31;;;;;;;22.15;4.95;;;9.50;99.90;;;;;;5012968;28;20029;-75
2021/12/10 07:44:57;;;;;;;21.45;5.05;;;9.50;99.90;;;;;;5029830;28;20056;-75
2021/12/10 07:47:23;;;;;;;24.17;5.13;;;9.40;99.90;;;;;;5000281;28;20030;-76
2021/12/10 07:49:49;;;;;;;25.30;5.95;;;9.40;99.90;;;;;;5029562;28;20521;-75
2021/12/10 07:52:24;;;;;;;23.10;5.22;;;9.40;99.90;;;;;;5030105;28;20041;-76
2021/12/10 07:54:50;;;;;;;23.13;4.05;;;9.50;99.90;;;;;;5029933;28;20036;-75
2021/12/10 07:57:18;;;;;;;22.85;4.40;;;9.50;99.90;;;;;;5013090;28;20026;-75
2021/12/10 07:59:44;;;;;;;22.70;5.13;;;9.50;99.90;;;;;;5015312;28;20576;-75
2021/12/10 08:02:10;;;;;;;21.45;4.75;;;9.40;99.90;;;;;;5014550;28;20116;-75
2021/12/10 08:04:36;;;;;;;23.10;3.78;;;9.50;99.90;;;;;;5026551;28;20170;-76
2021/12/10 08:07:03;;;;;;;19.98;4.78;;;9.50;99.90;;;;;;5030368;28;20030;-76
2021/12/10 08:09:28;;;;;;;23.20;4.75;;;9.40;99.90;;;;;;5012715;28;20022;-76
2021/12/10 08:11:54;;;;;;;19.73;4.53;;;9.40;99.90;;;;;;5030902;28;20036;-76
2021/12/10 08:14:20;;;;;;;15.63;3.88;;;9.40;99.90;;;;;;5014212;28;20026;-76
2021/12/10 08:16:46;;;;;;;18.75;3.63;;;9.40;99.90;;;;;;5030742;28;20030;-76
2021/12/10 08:19:12;;;;;;;19.17;3.92;;;9.40;99.90;;;;;;5029004;28;20394;-76
2021/12/10 08:21:39;;;;;;;28.17;5.47;;;9.40;99.90;;;;;;5030617;28;20099;-76
2021/12/10 08:24:05;;;;;;;21.88;3.63;;;9.30;99.90;;;;;;5015021;28;20041;-75
2021/12/10 08:26:31;;;;;;;23.13;4.43;;;9.40;99.90;;;;;;5032134;28;20032;-76
2021/12/10 08:28:57;;;;;;;22.63;3.72;;;9.30;99.90;;;;;;5027676;28;20021;-75
2021/12/10 08:31:23;;;;;;;18.67;3.72;;;9.20;99.90;;;;;;5025196;28;20044;-76
2021/12/10 08:33:49;;;;;;;20.73;4.07;;;9.10;99.90;;;;;;5025156;28;20076;-76
2021/12/10 08:36:18;;;;;;;17.58;3.45;;;8.90;99.90;;;;;;5022522;28;20026;-76
2021/12/10 08:38:46;;;;;;;16.05;3.25;;;8.80;99.90;;;;;;5024456;28;20029;-76
2021/12/10 08:41:17;;;;;;;11.20;3.25;;;8.70;99.90;;;;;;5025618;28;20138;-76
2021/12/10 08:43:44;;;;;;;15.02;3.55;;;8.70;99.90;;;;;;5023307;28;20587;-76
2021/12/10 08:46:12;;;;;;;17.27;4.03;;;8.70;99.90;;;;;;5027005;28;20073;-77
2021/12/10 08:48:39;;;;;;;22.63;4.45;;;8.70;99.90;;;;;;5010640;28;20040;-77
2021/12/10 08:51:10;;;;;;;22.05;4.65;;;8.60;99.90;;;;;;5013115;28;20072;-77
2021/12/10 08:53:36;;;;;;;17.05;3.65;;;8.60;99.90;;;;;;5028023;28;20055;-77
2021/12/10 08:56:03;;;;;;;16.33;3.30;;;8.60;99.90;;;;;;5026077;28;20033;-77
2021/12/10 08:58:29;;;;;;;15.93;4.35;;;8.60;99.90;;;;;;5025865;28;20033;-77
2021/12/10 09:01:11;;;;;;;12.15;3.13;;;8.60;99.90;;;;;;5026428;28;20036;-77
2021/12/10 09:03:36;;;;;;;12.30;3.63;;;8.40;99.90;;;;;;5029237;28;20087;-77
2021/12/10 09:06:04;;;;;;;18.83;2.72;;;8.40;99.90;;;;;;5006664;28;20586;-77
2021/12/10 09:08:30;;;;;;;17.65;3.08;;;8.50;99.90;;;;;;5029170;28;20044;-77
2021/12/10 09:10:57;;;;;;;20.00;4.05;;;8.40;99.90;;;;;;5028400;28;20380;-77
2021/12/10 09:13:24;;;;;;;16.70;3.17;;;8.40;99.90;;;;;;5028418;28;20029;-77
2021/12/10 09:15:59;;;;;;;12.40;2.53;;;8.40;99.90;;;;;;5028463;28;20113;-77
2021/12/10 09:18:26;;;;;;;15.40;3.38;;;8.30;99.90;;;;;;5028079;28;20055;-77
2021/12/10 09:20:54;;;;;;;14.75;2.90;;;8.30;99.90;;;;;;5027015;28;20017;-77
2021/12/10 09:23:24;;;;;;;18.20;2.75;;;8.20;99.90;;;;;;5029858;28;20021;-77
2021/12/10 09:25:52;;;;;;;14.02;2.83;;;8.30;99.90;;;;;;5028104;28;20090;-77
2021/12/10 09:28:18;;;;;;;18.27;2.80;;;8.20;99.90;;;;;;5028063;28;20014;-77
2021/12/10 09:30:48;;;;;;;9.48;2.33;;;8.10;99.90;;;;;;5023409;28;20021;-77
2021/12/10 09:33:14;;;;;;;9.25;2.20;;;8.10;99.90;;;;;;5010562;28;20036;-77
2021/12/10 09:35:40;;;;;;;15.40;3.55;;;8.10;99.90;;;;;;5029434;28;20410;-77
2021/12/10 09:38:06;;;;;;;8.18;2.25;;;8.20;99.90;;;;;;5006791;28;20071;-77
2021/12/10 09:40:38;;;;;;;7.35;1.92;;;8.20;99.90;;;;;;5028052;28;20041;-77
2021/12/10 09:43:06;;;;;;;11.07;2.85;;;8.20;99.90;;;;;;5011261;28;20029;-77
2021/12/10 09:45:35;;;;;;;12.80;2.85;;;8.20;99.90;;;;;;5008706;28;20041;-77
2021/12/10 09:48:02;;;;;;;7.30;1.95;;;8.30;99.90;;;;;;5027745;28;20540;-77
2021/12/10 09:50:33;;;;;;;10.13;2.55;;;8.30;99.90;;;;;;5014677;28;20037;-77
2021/12/10 09:52:59;;;;;;;4.70;1.60;;;8.30;99.90;;;;;;5022589;28;20867;-77
2021/12/10 09:55:27;;;;;;;6.82;1.95;;;8.40;99.90;;;;;;5027519;28;20108;-77
2021/12/10 09:57:53;;;;;;;7.60;1.95;;;8.30;99.90;;;;;;5021390;28;20032;-77
2021/12/10 10:00:28;;;;;;;6.88;1.80;;;8.30;99.90;;;;;;5025399;28;20034;-77
2021/12/10 10:02:55;;;;;;;11.13;2.65;;;8.30;99.90;;;;;;5010795;28;20025;-77
2021/12/10 10:05:26;;;;;;;7.05;2.55;;;8.30;99.90;;;;;;5029076;28;20112;-77
2021/12/10 10:07:55;;;;;;;17.23;3.17;;;8.30;99.90;;;;;;5026598;28;20029;-77
2021/12/10 10:10:24;;;;;;;9.52;1.98;;;8.40;99.90;;;;;;5027766;28;20086;-77
2021/12/10 10:12:52;;;;;;;12.32;2.40;;;8.40;99.90;;;;;;5005903;28;20754;-77
2021/12/10 10:15:24;;;;;;;10.60;2.45;;;8.50;99.90;;;;;;5026665;28;20100;-77
2021/12/10 10:17:50;;;;;;;10.52;2.20;;;8.50;99.90;;;;;;5020874;28;20132;-77
2021/12/10 10:20:18;;;;;;;13.68;3.22;;;8.50;99.90;;;;;;5016408;28;20495;-77
2021/12/10 10:22:45;;;;;;;17.10;3.03;;;8.50;99.90;;;;;;5018747;28;20022;-77
2021/12/10 10:25:11;;;;;;;13.45;2.40;;;8.60;99.90;;;;;;4999216;28;20061;-77
2021/12/10 10:27:40;;;;;;;17.38;2.90;;;8.60;99.90;;;;;;5009520;28;20024;-77
2021/12/10 10:30:32;;;;;;;17.45;2.65;;;8.60;99.90;;;;;;5012003;28;20044;-77
2021/12/10 10:33:03;;;;;;;13.10;2.45;;;8.60;99.90;;;;;;5027012;28;20033;-77
2021/12/10 10:35:34;;;;;;;13.90;2.45;;;8.60;99.90;;;;;;5014257;28;20029;-77
2021/12/10 10:38:01;;;;;;;12.87;3.17;;;8.70;99.90;;;;;;5025642;28;20128;-77
2021/12/10 10:40:34;;;;;;;10.00;2.40;;;8.70;99.90;;;;;;5027552;28;20419;-77
2021/12/10 10:43:00;;;;;;;11.82;2.65;;;8.70;99.90;;;;;;5027677;28;20029;-77
2021/12/10 10:45:30;;;;;;;11.90;3.13;;;8.70;99.90;;;;;;5027833;28;20574;-77
2021/12/10 10:47:57;;;;;;;14.40;3.38;;;8.70;99.90;;;;;;5011000;28;20030;-77
2021/12/10 10:50:31;;;;;;;20.10;3.92;;;8.70;99.90;;;;;;5026813;28;20017;-77
2021/12/10 10:53:00;;;;;;;10.50;4.05;;;8.70;99.90;;;;;;5009188;28;20441;-77
2021/12/10 10:55:35;;;;;;;15.70;2.95;;;8.80;99.90;;;;;;5027133;28;20025;-77
2021/12/10 10:58:13;;;;;;;14.75;3.08;;;8.80;99.90;;;;;;5009547;28;20503;-77
2021/12/10 11:01:00;;;;;;;10.35;2.72;;;8.70;99.90;;;;;;5026633;28;20024;-76
2021/12/10 11:03:42;;;;;;;10.63;2.30;;;8.70;99.90;;;;;;5011672;28;20495;-77
2021/12/10 11:06:14;;;;;;;9.93;2.33;;;8.70;99.90;;;;;;5011821;28;20022;-77
2021/12/10 11:08:47;;;;;;;13.75;2.40;;;8.60;99.90;;;;;;5024580;28;20060;-77
2021/12/10 11:11:17;;;;;;;10.05;2.03;;;8.50;99.90;;;;;;5027693;28;20586;-77
2021/12/10 11:13:46;;;;;;;11.80;1.88;;;8.50;99.90;;;;;;5008938;28;20033;-77
2021/12/10 11:16:18;;;;;;;9.35;1.70;;;8.50;99.90;;;;;;5025481;28;20068;-77
2021/12/10 11:18:49;;;;;;;;;;;8.40;99.90;;;;;;5009099;28;20072;-77
2021/12/10 11:21:16;;;;;;;8.60;1.77;;;8.20;99.90;;;;;;5024283;28;19924;-77
2021/12/10 11:23:42;;;;;;;6.63;1.60;;;8.00;99.90;;;;;;5007162;28;20124;-77
2021/12/10 11:26:10;;;;;;;6.15;1.83;;;7.90;99.90;;;;;;5028187;28;20022;-77
2021/12/10 11:28:41;;;;;;;4.03;1.65;;;7.90;99.90;;;;;;5020215;28;20109;-77
2021/12/10 11:31:13;;;;;;;2.72;0.88;;;7.90;99.90;;;;;;5019755;28;20033;-77
2021/12/10 11:33:49;;;;;;;7.78;2.28;;;7.90;99.90;;;;;;5006259;28;20527;-77
2021/12/10 11:36:23;;;;;;;4.40;0.85;;;7.80;99.90;;;;;;5026498;28;20108;-77
2021/12/10 11:38:54;;;;;;;3.70;0.90;;;7.80;99.90;;;;;;5010948;28;20501;-77
2021/12/10 11:41:26;;;;;;;4.63;1.60;;;7.70;99.90;;;;;;5027861;28;20028;-77
2021/12/10 11:44:43;;;;;;;3.97;1.05;;;7.80;99.90;;;;;;5026767;28;20029;-77
2021/12/10 11:50:00;;;;;;;3.47;1.10;;;7.80;99.90;;;;;;5021085;28;20124;-77
2021/12/10 11:52:28;;;;;;;3.17;0.75;;;7.80;99.90;;;;;;5011929;28;20017;-77
2021/12/10 11:55:07;;;;;;;7.72;1.60;;;7.80;99.90;;;;;;5029507;28;20036;-77
2021/12/10 11:57:41;;;;;;;3.83;1.30;;;7.80;99.90;;;;;;5029902;28;20487;-77
2021/12/10 12:00:30;;;;;;;4.88;1.48;;;7.80;99.90;;;;;;5023398;28;20053;-77
2021/12/10 12:03:00;;;;;;;6.85;1.20;;;7.80;99.90;;;;;;5022534;28;20021;-77
2021/12/10 12:05:30;;;;;;;7.90;2.35;;;7.70;99.90;;;;;;5025761;28;20036;-77
2021/12/10 12:08:00;;;;;;;3.30;1.25;;;7.70;99.90;;;;;;5028140;28;20025;-77
2021/12/10 12:10:43;;;;;;;4.00;1.70;;;7.70;99.90;;;;;;5029334;28;20037;-77
2021/12/10 12:13:35;;;;;;;3.58;1.30;;;7.80;99.90;;;;;;5028571;28;20495;-77
2021/12/10 12:16:09;;;;;;;3.47;1.40;;;7.80;99.90;;;;;;5030172;28;20029;-77
2021/12/10 12:18:39;;;;;;;3.15;1.40;;;7.90;99.90;;;;;;5030762;28;20037;-77
2021/12/10 12:27:08;;;;;;;4.55;0.80;;;7.70;99.90;;;;;;5029610;28;20516;-77
2021/12/10 12:30:01;;;;;;;2.53;0.90;;;7.60;99.90;;;;;;5041637;28;20029;-77
2021/12/10 12:32:43;;;;;;;2.80;0.63;;;7.50;99.90;;;;;;5009015;28;20040;-77
2021/12/10 12:35:18;;;;;;;0.90;0.68;;;7.50;99.90;;;;;;5028100;28;20030;-77
2021/12/10 12:37:44;;;;;;;2.97;1.02;;;7.40;99.90;;;;;;5027691;28;20088;-77
2021/12/10 12:40:10;;;;;;;2.97;0.80;;;7.20;99.90;;;;;;5004851;28;20084;-77
2021/12/10 12:42:44;;;;;;;4.22;1.38;;;7.20;99.90;;;;;;5017486;28;20045;-77
2021/12/10 12:45:19;;;;;;;3.50;1.58;;;7.20;99.90;;;;;;5028775;28;20111;-77
2021/12/10 12:47:51;;;;;;;4.10;1.00;;;7.10;99.90;;;;;;5029242;28;20025;-77
2021/12/10 12:50:32;;;;;;;2.47;0.90;;;7.10;99.90;;;;;;5029896;28;20029;-77
2021/12/10 12:53:13;;;;;;;3.20;1.10;;;7.20;99.90;;;;;;5028293;28;20087;-77
2021/12/10 12:56:05;;;;;;;3.17;0.95;;;7.20;99.90;;;;;;5028287;28;20044;-77
2021/12/10 12:58:49;;;;;;;5.97;1.10;;;7.10;99.90;;;;;;5011437;28;20162;-77
2021/12/10 13:01:17;;;;;;;4.07;1.15;;;7.10;99.90;;;;;;5029128;28;20056;-77
2021/12/10 13:03:54;;;;;;;3.72;0.95;;;7.10;99.90;;;;;;5028603;28;20086;-77
2021/12/10 13:06:23;;;;;;;6.57;1.33;;;7.10;99.90;;;;;;5028514;28;20506;-77
2021/12/10 13:09:13;;;;;;;3.10;1.10;;;7.10;99.90;;;;;;5028398;28;20033;-77
2021/12/10 13:14:45;;;;;;;4.13;1.42;;;7.20;99.90;;;;;;5028975;28;20101;-77
2021/12/10 13:17:19;;;;;;;3.25;0.80;;;7.20;99.90;;;;;;5008278;28;20038;-77
2021/12/10 13:19:45;;;;;;;5.30;0.80;;;7.30;99.90;;;;;;5025765;28;20040;-77
2021/12/10 13:22:15;;;;;;;1.77;0.82;;;7.30;99.90;;;;;;5028094;28;20029;-77
2021/12/10 13:24:47;;;;;;;3.00;0.70;;;7.40;99.90;;;;;;5028544;28;20026;-77